Aeroporto :
LOGIN :

Iscrizione | Disclaimer

   EN    FR    IT 

 










Sommario :    VFR   VFR Marginale   IFR   IFR Intensivo   IFR Molto Intensivo
Visibilità : 
Base nubi : 
>= 8 km
>= 3000ft
5 / 8 km
1000 / 3000 ft
1500m / 5 km
500 / 1000 ft
800 / 1500m
200 / 500 ft
< 800m
< 200 ft
Simboli :   Temporali  Nebbia  Neve Forte  Precipitazioni Forti  Vento > 20 kt
SIGMETs :   Varie  Temporali  Ghiacco  Turbolenza  Onda orograficha  Ceneri Vulcaniche






- Altitudine del aeroporto : 597 ft
- Codice IATA : PDV


LBPD - Plovdiv

ULTIMO METAR :
  • 171630Z AUTO 21004KT 9999 NCD 07/01 Q1025 NOSIG

METARs OBSOLETI :
  • 171600Z AUTO VRB02KT 9999 NCD 10/01 Q1024 NOSIG
  • 171530Z AUTO 00000KT 9999 NCD 12/00 Q1024 NOSIG
  • 171500Z AUTO 00000KT 9999 NCD 12/M00 Q1024 NOSIG
  • 171430Z AUTO VRB02KT 9999 NCD 13/M00 Q1024 NOSIG
  • 171400Z AUTO 12003KT 070V210 9999 NCD 13/M00 Q1025 NOSIG

TAF TAF LBPD
Valido dal 17 a 12 ore il 18 a 12 ore UTC


171100Z 1712/1812 VRB04KT CAVOK
TEMPO 1802/18/06 5000 BR



MetMap, La meteo Aeronautica in un colpo d'occhio ! - Copyright ORBIFLY Dicembre 2007 - Disclaimer

ORBIFLY MET'MAP TEAM :

Programmazione e sviluppo : Alexandra Zaïnal
Concezione : Baudouin d'Aumeries
Aiuto per la programmazione : Marc-Olivier Méhu
Supporto tecnico e logistico : Manuel Goepfert
Aiuto per la traduzione : Arnaldo La Scala

Contatto : metmap@orbifly.com




FONTI E CREDITI :

   NOAA